Terminal Aerodrome Forecast
Issued by NWS

Home | Current Version | Previous Version | Text Only | Print | Product List | Glossary On
Versions: 1 2 3 4 5 6 7 8 9 10 11 12 13 14 15 16 17 18 19 20 21 22 23
000
FTUS41 KPBZ 261100
TAFDUJ
TAF
KDUJ 261132Z 2612/2712 08012KT 3SM -SN BR OVC025
      TEMPO 2617/2621 2SM -SN BKN015
     FM270300 07006KT 3SM -SHSN OVC010
     FM270600 03006KT P6SM BKN008=

USA.gov is the U.S. government's official web portal to all federal, state and local government web resources and services.